createdAt,value
2017-10-30T00:01:18.577Z,4.00
2017-10-30T00:03:45.172Z,0.90
2017-10-30T00:06:11.836Z,3.70
2017-10-30T00:08:38.430Z,4.70
2017-10-30T00:11:04.670Z,2.00
2017-10-30T00:13:30.894Z,5.87
2017-10-30T00:15:57.154Z,4.40
2017-10-30T00:18:23.378Z,3.27
2017-10-30T00:20:49.607Z,2.50
2017-10-30T00:23:16.081Z,1.40
2017-10-30T00:25:42.647Z,4.20
2017-10-30T00:28:09.105Z,3.07
2017-10-30T00:30:35.741Z,1.77
2017-10-30T00:33:01.999Z,4.60
2017-10-30T00:35:28.591Z,4.87
2017-10-30T00:37:55.108Z,3.50
2017-10-30T00:40:21.550Z,4.13
2017-10-30T00:42:48.113Z,3.77
2017-10-30T00:45:14.732Z,2.90
2017-10-30T00:47:41.148Z,1.90
2017-10-30T00:50:07.566Z,4.93
2017-10-30T00:52:34.032Z,3.00
2017-10-30T00:55:00.486Z,6.10
2017-10-30T00:57:27.119Z,9.27
2017-10-30T00:59:53.609Z,5.83
2017-10-30T01:02:20.050Z,4.23
2017-10-30T01:04:46.492Z,2.90
2017-10-30T01:07:12.909Z,5.53
2017-10-30T01:09:39.350Z,4.87
2017-10-30T01:12:05.792Z,3.40
2017-10-30T01:14:32.210Z,10.20
2017-10-30T01:16:58.800Z,8.70
2017-10-30T01:19:25.436Z,4.20
2017-10-30T01:21:52.058Z,7.20
2017-10-30T01:24:18.511Z,8.33
2017-10-30T01:26:44.994Z,1.60
2017-10-30T01:29:11.535Z,7.80
2017-10-30T01:31:38.003Z,1.70
2017-10-30T01:34:04.647Z,10.57
2017-10-30T01:36:31.080Z,3.43
2017-10-30T01:38:57.724Z,3.03
2017-10-30T01:41:24.019Z,2.53
2017-10-30T01:43:50.383Z,2.57
2017-10-30T01:46:17.001Z,4.93
2017-10-30T01:48:43.443Z,2.30
2017-10-30T01:51:10.093Z,3.93
2017-10-30T01:53:36.704Z,9.70
2017-10-30T01:56:03.148Z,8.73
2017-10-30T01:58:29.667Z,38.90
2017-10-30T02:00:56.104Z,3.53
2017-10-30T02:03:22.519Z,3.50
2017-10-30T02:05:48.961Z,3.50
2017-10-30T02:08:15.480Z,2.83
2017-10-30T02:10:41.821Z,4.53
2017-10-30T02:13:08.261Z,3.77
2017-10-30T02:15:34.679Z,5.57
2017-10-30T02:18:01.121Z,3.00
2017-10-30T02:20:27.568Z,3.13
2017-10-30T02:22:54.006Z,1.60
2017-10-30T02:25:20.521Z,2.17
2017-10-30T02:27:46.814Z,1.70
2017-10-30T02:30:13.245Z,6.57
2017-10-30T02:32:39.870Z,11.37
2017-10-30T02:35:06.364Z,10.57
2017-10-30T02:37:32.817Z,4.30
2017-10-30T02:39:59.220Z,2.23
2017-10-30T02:42:25.665Z,4.60
2017-10-30T02:44:52.111Z,1.20
2017-10-30T02:47:18.621Z,9.53
2017-10-30T02:49:45.088Z,1.90
2017-10-30T02:52:11.530Z,4.20
2017-10-30T02:54:37.977Z,5.60
2017-10-30T02:57:04.616Z,4.57
2017-10-30T02:59:31.232Z,4.50
2017-10-30T03:01:57.690Z,2.67
2017-10-30T03:04:24.120Z,2.80
2017-10-30T03:06:50.340Z,2.60
2017-10-30T03:09:16.749Z,8.27
2017-10-30T03:11:43.217Z,5.60
2017-10-30T03:14:09.709Z,12.70
2017-10-30T03:16:36.273Z,6.20
2017-10-30T03:19:02.924Z,4.27
2017-10-30T03:21:29.153Z,4.53
2017-10-30T03:23:55.799Z,7.97
2017-10-30T03:26:22.433Z,18.57
2017-10-30T03:28:49.059Z,4.80
2017-10-30T03:31:15.503Z,5.10
2017-10-30T03:33:42.117Z,5.23
2017-10-30T03:36:08.573Z,3.67
2017-10-30T03:38:35.216Z,6.60
2017-10-30T03:41:01.842Z,4.77
2017-10-30T03:43:28.084Z,8.53
2017-10-30T03:45:54.516Z,5.80
2017-10-30T03:48:21.143Z,4.70
2017-10-30T03:50:47.791Z,5.20
2017-10-30T03:53:14.275Z,5.03
2017-10-30T03:55:40.719Z,3.33
2017-10-30T03:58:07.134Z,6.70
2017-10-30T04:00:33.728Z,18.23
2017-10-30T04:03:00.365Z,7.97
2017-10-30T04:05:26.855Z,8.13
2017-10-30T04:07:53.277Z,6.13
2017-10-30T04:10:19.744Z,6.47
2017-10-30T04:12:46.099Z,4.97
2017-10-30T04:15:12.535Z,7.70
2017-10-30T04:17:38.810Z,8.07
2017-10-30T04:20:05.385Z,4.73
2017-10-30T04:22:31.935Z,3.70
2017-10-30T04:24:58.373Z,5.73
2017-10-30T04:27:25.013Z,7.47
2017-10-30T04:29:51.629Z,19.03
2017-10-30T04:32:18.069Z,12.33
2017-10-30T04:34:44.564Z,6.53
2017-10-30T04:37:11.003Z,4.37
2017-10-30T04:39:37.482Z,6.93
2017-10-30T04:42:04.121Z,2.70
2017-10-30T04:44:30.728Z,5.53
2017-10-30T04:46:57.145Z,11.10
2017-10-30T04:49:23.587Z,3.07
2017-10-30T04:51:50.006Z,9.77
2017-10-30T04:54:17.005Z,5.37
2017-10-30T04:56:43.649Z,6.17
2017-10-30T04:59:10.155Z,7.77
2017-10-30T05:01:36.818Z,3.80
2017-10-30T05:04:03.337Z,10.10
2017-10-30T05:06:29.778Z,5.90
2017-10-30T05:08:56.271Z,7.43
2017-10-30T05:11:22.652Z,15.27
2017-10-30T05:13:49.076Z,5.73
2017-10-30T05:16:15.723Z,3.27
2017-10-30T05:18:42.159Z,16.13
2017-10-30T05:21:08.786Z,5.40
2017-10-30T05:23:35.437Z,10.37
2017-10-30T05:26:01.940Z,5.93
2017-10-30T05:28:28.455Z,4.50
2017-10-30T05:30:54.897Z,7.70
2017-10-30T05:33:21.365Z,4.43
2017-10-30T05:35:48.006Z,8.37
2017-10-30T05:38:14.647Z,5.40
2017-10-30T05:40:41.140Z,8.13
2017-10-30T05:43:07.581Z,17.63
2017-10-30T05:45:33.956Z,4.90
2017-10-30T05:48:00.587Z,7.47
2017-10-30T05:50:27.083Z,15.10
2017-10-30T05:52:53.524Z,4.13
2017-10-30T05:55:19.942Z,8.23
2017-10-30T05:57:46.383Z,9.77
2017-10-30T06:00:12.960Z,9.40
2017-10-30T06:02:39.566Z,12.40
2017-10-30T06:05:06.011Z,2.90
2017-10-30T06:07:32.676Z,6.43
2017-10-30T06:09:59.194Z,1.90
2017-10-30T06:12:25.537Z,12.13
2017-10-30T06:14:51.999Z,4.57
2017-10-30T06:17:18.612Z,3.43
2017-10-30T06:19:45.087Z,10.10
2017-10-30T06:22:11.551Z,4.00
2017-10-30T06:24:38.069Z,9.57
2017-10-30T06:27:04.403Z,23.17
2017-10-30T06:29:30.955Z,15.30
2017-10-30T06:31:57.372Z,4.67
2017-10-30T06:34:23.737Z,13.23
2017-10-30T06:36:50.239Z,7.50
2017-10-30T06:39:16.671Z,8.70
2017-10-30T06:41:43.111Z,6.63
2017-10-30T06:44:09.785Z,19.40
2017-10-30T06:46:36.398Z,9.37
2017-10-30T06:49:02.814Z,78.10
2017-10-30T06:51:29.255Z,6.63
2017-10-30T06:53:55.518Z,3.70
2017-10-30T06:56:22.040Z,13.70
2017-10-30T06:58:48.702Z,4.70
2017-10-30T07:01:15.174Z,6.33
2017-10-30T07:03:41.764Z,8.30
2017-10-30T07:06:08.383Z,14.97
2017-10-30T07:08:34.940Z,11.50
2017-10-30T07:11:01.440Z,8.20
2017-10-30T07:13:28.113Z,8.10
2017-10-30T07:15:54.749Z,26.57
2017-10-30T07:18:21.369Z,13.80
2017-10-30T07:20:48.027Z,4.80
2017-10-30T07:23:14.571Z,5.70
2017-10-30T07:25:41.070Z,2.40
2017-10-30T07:28:07.586Z,5.43
2017-10-30T07:30:34.152Z,3.57
2017-10-30T07:33:00.670Z,4.03
2017-10-30T07:35:27.138Z,2.70
2017-10-30T07:37:53.984Z,3.70
2017-10-30T07:40:20.416Z,4.67
2017-10-30T07:42:46.911Z,2.17
2017-10-30T07:45:13.284Z,9.90
2017-10-30T07:47:39.716Z,1.80
2017-10-30T07:50:06.215Z,19.73
2017-10-30T07:52:32.787Z,6.23
2017-10-30T07:54:59.220Z,2.30
2017-10-30T07:57:25.839Z,9.60
2017-10-30T07:59:52.257Z,2.67
2017-10-30T08:02:18.675Z,5.77
2017-10-30T08:04:45.366Z,3.73
2017-10-30T08:07:11.798Z,6.07
2017-10-30T08:09:38.299Z,12.67
2017-10-30T08:12:04.715Z,2.40
2017-10-30T08:14:31.159Z,3.80
2017-10-30T08:16:57.675Z,9.63
2017-10-30T08:19:24.113Z,6.57
2017-10-30T08:21:50.560Z,9.00
2017-10-30T08:24:17.032Z,4.00
2017-10-30T08:26:43.517Z,4.83
2017-10-30T08:29:09.961Z,2.20
2017-10-30T08:31:36.344Z,4.43
2017-10-30T08:34:02.819Z,12.90
2017-10-30T08:36:29.261Z,4.77
2017-10-30T08:38:55.702Z,2.20
2017-10-30T08:41:22.121Z,6.83
2017-10-30T08:43:48.708Z,2.63
2017-10-30T08:46:15.324Z,13.73
2017-10-30T08:48:41.982Z,2.90
2017-10-30T08:51:08.464Z,1.47
2017-10-30T08:53:35.057Z,6.90
2017-10-30T08:56:01.447Z,9.97
2017-10-30T08:58:27.787Z,5.73
2017-10-30T09:00:54.357Z,7.20
2017-10-30T09:03:20.973Z,8.60
2017-10-30T09:05:47.389Z,1.80
2017-10-30T09:08:13.832Z,6.80
2017-10-30T09:10:40.349Z,10.03
2017-10-30T09:13:06.799Z,7.17
2017-10-30T09:15:33.234Z,4.60
2017-10-30T09:17:59.749Z,8.90
2017-10-30T09:20:26.190Z,5.27
2017-10-30T09:22:52.534Z,9.50
2017-10-30T09:25:19.050Z,9.97
2017-10-30T09:27:45.496Z,6.60
2017-10-30T09:30:11.835Z,8.43
2017-10-30T09:32:38.250Z,14.23
2017-10-30T09:35:04.718Z,6.93
2017-10-30T09:37:31.265Z,8.20
2017-10-30T09:39:57.748Z,2.77
2017-10-30T09:42:24.316Z,15.00
2017-10-30T09:44:50.737Z,11.13
2017-10-30T09:47:17.411Z,9.93
2017-10-30T09:49:44.051Z,27.47
2017-10-30T09:52:10.664Z,12.20
2017-10-30T09:54:37.182Z,13.77
2017-10-30T09:57:03.622Z,7.30
2017-10-30T09:59:30.036Z,10.50
2017-10-30T10:01:56.476Z,3.40
2017-10-30T10:04:23.081Z,6.60
2017-10-30T10:06:49.666Z,5.80
2017-10-30T10:09:16.307Z,10.77
2017-10-30T10:11:42.726Z,2.20
2017-10-30T10:14:09.166Z,6.90
2017-10-30T10:16:35.846Z,11.23
2017-10-30T10:19:02.324Z,4.20
2017-10-30T10:21:28.911Z,8.17
2017-10-30T10:23:55.530Z,10.53
2017-10-30T10:26:21.932Z,15.77
2017-10-30T10:28:48.367Z,8.13
2017-10-30T10:31:15.032Z,3.53
2017-10-30T10:33:41.703Z,3.30
2017-10-30T10:36:08.362Z,4.17
2017-10-30T10:38:34.970Z,7.73
2017-10-30T10:41:01.455Z,7.13
2017-10-30T10:43:28.038Z,5.70
2017-10-30T10:45:54.663Z,5.93
2017-10-30T10:48:21.316Z,12.40
2017-10-30T10:50:47.820Z,13.50
2017-10-30T10:53:14.338Z,23.10
2017-10-30T10:55:40.781Z,9.10
2017-10-30T10:58:07.459Z,10.60
2017-10-30T11:00:34.098Z,2.67
2017-10-30T11:03:00.344Z,9.27
2017-10-30T11:05:26.593Z,4.03
2017-10-30T11:07:52.874Z,18.90
2017-10-30T11:10:19.095Z,6.20
2017-10-30T11:12:45.351Z,13.33
2017-10-30T11:15:11.628Z,21.17
2017-10-30T11:17:37.860Z,4.43
2017-10-30T11:20:04.087Z,13.50
2017-10-30T11:22:30.363Z,11.47
2017-10-30T11:24:56.600Z,12.23
2017-10-30T11:27:22.902Z,14.93
2017-10-30T11:29:49.543Z,7.90
2017-10-30T11:32:15.960Z,6.43
2017-10-30T11:34:42.423Z,11.63
2017-10-30T11:37:09.043Z,8.07
2017-10-30T11:39:35.293Z,5.60
2017-10-30T11:42:01.777Z,2.73
2017-10-30T11:44:28.222Z,11.40
2017-10-30T11:46:54.661Z,8.30
2017-10-30T11:49:21.230Z,23.90
2017-10-30T11:51:47.663Z,2.97
2017-10-30T11:54:14.164Z,2.50
2017-10-30T11:56:40.728Z,4.00
2017-10-30T11:59:07.247Z,11.13
2017-10-30T12:01:33.769Z,17.37
2017-10-30T12:04:00.106Z,3.83
2017-10-30T12:06:26.622Z,3.23
2017-10-30T12:08:52.966Z,3.80
2017-10-30T12:11:19.541Z,3.43
2017-10-30T12:13:46.177Z,4.77
2017-10-30T12:16:12.667Z,6.30
2017-10-30T12:18:39.109Z,5.47
2017-10-30T12:21:05.624Z,9.40
2017-10-30T12:23:32.068Z,5.27
2017-10-30T12:25:58.409Z,6.10
2017-10-30T12:28:24.773Z,6.03
2017-10-30T12:30:51.391Z,10.03
2017-10-30T12:33:17.813Z,43.23
2017-10-30T12:35:44.490Z,24.60
2017-10-30T12:38:10.924Z,13.83
2017-10-30T12:40:37.314Z,22.07
2017-10-30T12:43:03.992Z,30.50
2017-10-30T12:45:30.494Z,68.13
2017-10-30T12:47:56.861Z,30.80
2017-10-30T12:50:23.110Z,54.20
2017-10-30T12:52:49.525Z,52.90
2017-10-30T12:55:16.138Z,4.70
2017-10-30T12:57:42.826Z,15.67
2017-10-30T13:00:09.625Z,26.70
2017-10-30T13:02:36.063Z,62.93
2017-10-30T13:05:02.556Z,81.77
2017-10-30T13:07:28.777Z,15.20
2017-10-30T13:09:55.004Z,26.17
2017-10-30T13:12:21.276Z,65.20
2017-10-30T13:14:47.795Z,20.97
2017-10-30T13:17:14.241Z,84.77
2017-10-30T13:19:40.534Z,29.83
2017-10-30T13:22:06.765Z,21.57
2017-10-30T13:36:32.215Z,52.40
2017-10-30T13:38:58.717Z,14.90
2017-10-30T13:41:25.372Z,19.90
2017-10-30T13:43:52.016Z,53.20
2017-10-30T13:46:18.494Z,44.60
2017-10-30T13:48:44.973Z,31.37
2017-10-30T13:51:11.489Z,34.93
2017-10-30T13:53:37.907Z,14.50
2017-10-30T13:56:04.349Z,16.60
2017-10-30T13:58:31.033Z,43.87
2017-10-30T14:00:57.265Z,27.17
2017-10-30T14:03:23.775Z,28.73
2017-10-30T14:05:50.191Z,27.43
2017-10-30T14:08:16.634Z,6.63
2017-10-30T14:10:43.050Z,39.77
2017-10-30T14:13:09.569Z,10.73
2017-10-30T14:15:36.039Z,12.93
2017-10-30T14:18:02.500Z,24.27
2017-10-30T14:20:28.992Z,28.47
2017-10-30T14:22:55.572Z,54.97
2017-10-30T14:25:22.015Z,125.43
2017-10-30T14:27:48.430Z,75.53
2017-10-30T14:30:15.075Z,15.70
2017-10-30T14:32:41.306Z,20.53
2017-10-30T14:35:07.920Z,49.97
2017-10-30T14:37:34.362Z,53.77
2017-10-30T14:40:00.811Z,38.30
2017-10-30T14:42:27.293Z,53.93
2017-10-30T14:44:53.736Z,26.47
2017-10-30T14:47:20.186Z,35.20
2017-10-30T14:49:46.693Z,20.00
2017-10-30T14:52:13.137Z,26.57
2017-10-30T14:54:39.369Z,17.10
2017-10-30T14:57:05.645Z,13.70
2017-10-30T14:59:31.860Z,56.63
2017-10-30T15:01:58.105Z,35.17
2017-10-30T15:04:24.384Z,19.73
2017-10-30T15:06:50.616Z,22.00
2017-10-30T15:09:16.842Z,26.43
2017-10-30T15:11:43.212Z,26.30
2017-10-30T15:14:09.447Z,36.50
2017-10-30T15:16:35.702Z,22.13
2017-10-30T15:19:01.974Z,61.17
2017-10-30T15:21:28.246Z,33.17
2017-10-30T15:23:54.478Z,43.20
2017-10-30T15:26:20.741Z,31.90
2017-10-30T15:28:46.971Z,29.00
2017-10-30T15:31:13.192Z,29.03
2017-10-30T15:33:39.455Z,27.60
2017-10-30T15:36:05.679Z,17.13
2017-10-30T15:38:31.909Z,29.63
2017-10-30T15:40:58.178Z,36.07
2017-10-30T15:43:24.601Z,22.73
2017-10-30T15:45:51.083Z,34.87
2017-10-30T15:48:17.670Z,60.83
2017-10-30T15:50:44.307Z,31.63
2017-10-30T15:53:10.658Z,39.43
2017-10-30T15:55:37.125Z,58.10
2017-10-30T15:58:03.566Z,38.30
2017-10-30T16:00:29.984Z,39.23
2017-10-30T16:02:56.229Z,43.47
2017-10-30T16:05:22.446Z,48.20
2017-10-30T16:07:48.687Z,47.23
2017-10-30T16:10:14.968Z,40.80
2017-10-30T16:12:41.280Z,117.37
2017-10-30T16:15:07.483Z,58.40
2017-10-30T16:17:33.724Z,73.63
2017-10-30T16:19:59.957Z,86.00
2017-10-30T16:22:26.208Z,39.33
2017-10-30T16:24:52.472Z,54.67
2017-10-30T16:27:18.676Z,41.50
2017-10-30T16:29:44.898Z,42.33
2017-10-30T16:32:11.301Z,56.23
2017-10-30T16:34:37.526Z,178.83
2017-10-30T16:37:03.756Z,55.20
2017-10-30T16:39:30.022Z,21.20
2017-10-30T16:41:56.257Z,40.60
2017-10-30T16:44:22.491Z,45.67
2017-10-30T16:46:48.755Z,35.37
2017-10-30T16:49:14.979Z,76.13
2017-10-30T16:51:41.214Z,50.97
2017-10-30T16:54:07.563Z,46.17
2017-10-30T16:56:33.801Z,38.27
2017-10-30T16:59:00.044Z,27.20
2017-10-30T17:01:26.343Z,44.20
2017-10-30T17:03:52.570Z,34.73
2017-10-30T17:06:18.816Z,30.93
2017-10-30T17:08:45.068Z,35.73
2017-10-30T17:11:11.309Z,60.10
2017-10-30T17:13:37.621Z,32.40
2017-10-30T17:16:03.926Z,33.40
2017-10-30T17:18:30.154Z,43.50
2017-10-30T17:20:56.382Z,34.20
2017-10-30T17:23:22.657Z,29.30
2017-10-30T17:25:48.876Z,60.83
2017-10-30T17:28:15.108Z,29.57
2017-10-30T17:30:41.386Z,25.70
2017-10-30T17:33:07.609Z,27.33
2017-10-30T17:35:33.839Z,22.77
2017-10-30T17:38:00.099Z,29.23
2017-10-30T17:40:26.334Z,66.60
2017-10-30T17:42:52.590Z,60.10
2017-10-30T17:45:18.858Z,35.97
2017-10-30T17:47:45.080Z,50.37
2017-10-30T17:50:11.320Z,151.68
2017-10-30T17:52:37.627Z,59.50
2017-10-30T17:55:03.868Z,46.00
2017-10-30T17:57:30.146Z,36.73
2017-10-30T17:59:56.465Z,30.30
2017-10-30T18:02:22.690Z,40.13
2017-10-30T18:04:48.936Z,37.60
2017-10-30T18:07:15.281Z,42.67
2017-10-30T18:09:41.515Z,43.73
2017-10-30T18:12:07.762Z,20.50
2017-10-30T18:14:34.042Z,27.67
2017-10-30T18:17:00.317Z,17.83
2017-10-30T18:19:26.556Z,21.17
2017-10-30T18:21:52.827Z,14.10
2017-10-30T18:24:19.274Z,26.30
2017-10-30T18:26:45.526Z,26.60
2017-10-30T18:29:11.804Z,27.10
2017-10-30T18:31:38.028Z,48.83
2017-10-30T18:34:04.260Z,24.53
2017-10-30T18:36:30.526Z,23.50
2017-10-30T18:38:56.747Z,22.20
2017-10-30T18:41:22.988Z,26.43
2017-10-30T18:43:49.275Z,33.03
2017-10-30T18:46:15.512Z,34.57
2017-10-30T18:48:41.750Z,30.87
2017-10-30T18:51:08.030Z,23.33
2017-10-30T18:53:34.271Z,21.50
2017-10-30T18:56:00.504Z,13.33
2017-10-30T18:58:26.790Z,22.30
2017-10-30T19:00:53.013Z,32.83
2017-10-30T19:03:19.259Z,38.77
2017-10-30T19:05:45.512Z,33.97
2017-10-30T19:08:11.735Z,19.30
2017-10-30T19:10:38.025Z,32.80
2017-10-30T19:13:04.311Z,26.63
2017-10-30T19:15:30.669Z,27.80
2017-10-30T19:17:56.904Z,27.67
2017-10-30T19:20:23.192Z,19.23
2017-10-30T19:22:49.414Z,19.07
2017-10-30T19:25:15.659Z,24.40
2017-10-30T19:27:41.955Z,22.13
2017-10-30T19:30:08.179Z,10.93
2017-10-30T19:32:34.423Z,15.77
2017-10-30T19:35:00.703Z,18.60
2017-10-30T19:37:26.936Z,8.93
2017-10-30T19:39:53.145Z,10.73
2017-10-30T19:42:19.409Z,20.03
2017-10-30T19:44:45.638Z,14.93
2017-10-30T19:47:11.867Z,32.93
2017-10-30T19:49:38.145Z,22.60
2017-10-30T19:52:04.560Z,13.57
2017-10-30T19:54:30.856Z,19.83
2017-10-30T19:56:57.274Z,12.57
2017-10-30T19:59:23.503Z,12.60
2017-10-30T20:01:49.744Z,25.37
2017-10-30T20:04:16.031Z,12.90
2017-10-30T20:06:42.254Z,17.63
2017-10-30T20:09:08.483Z,13.00
2017-10-30T20:11:34.727Z,10.50
2017-10-30T20:14:00.959Z,10.73
2017-10-30T20:16:27.191Z,19.67
2017-10-30T20:18:53.470Z,14.97
2017-10-30T20:21:19.701Z,9.23
2017-10-30T20:23:45.924Z,11.73
2017-10-30T20:26:12.328Z,13.90
2017-10-30T20:28:38.558Z,13.00
2017-10-30T20:31:05.036Z,11.80
2017-10-30T20:33:31.320Z,6.67
2017-10-30T20:35:57.560Z,11.43
2017-10-30T20:38:23.801Z,7.60
2017-10-30T20:40:50.073Z,7.80
2017-10-30T20:43:16.305Z,5.20
2017-10-30T20:45:42.540Z,17.07
2017-10-30T20:48:08.813Z,6.83
2017-10-30T20:50:35.050Z,8.80
2017-10-30T20:53:01.346Z,17.67
2017-10-30T20:55:27.637Z,12.00
2017-10-30T20:57:53.884Z,8.27
2017-10-30T21:00:20.122Z,27.07
2017-10-30T21:02:46.420Z,19.33
2017-10-30T21:05:12.683Z,17.97
2017-10-30T21:07:38.929Z,17.90
2017-10-30T21:10:05.196Z,31.27
2017-10-30T21:12:31.417Z,15.13
2017-10-30T21:14:57.655Z,17.47
2017-10-30T21:17:23.938Z,15.70
2017-10-30T21:19:50.159Z,20.33
2017-10-30T21:22:16.379Z,27.27
2017-10-30T21:24:42.653Z,35.33
2017-10-30T21:27:08.904Z,16.20
2017-10-30T21:29:35.136Z,15.23
2017-10-30T21:32:01.420Z,17.20
2017-10-30T21:34:27.652Z,11.97
2017-10-30T21:36:53.890Z,17.83
2017-10-30T21:39:20.147Z,14.00
2017-10-30T21:41:46.380Z,14.63
2017-10-30T21:44:12.634Z,12.30
2017-10-30T21:46:38.921Z,10.03
2017-10-30T21:49:05.171Z,4.93
2017-10-30T21:51:31.426Z,13.33
2017-10-30T21:53:57.709Z,9.13
2017-10-30T21:56:23.947Z,16.37
2017-10-30T21:58:50.188Z,8.73
2017-10-30T22:01:16.586Z,8.80
2017-10-30T22:03:42.830Z,6.30
2017-10-30T22:06:09.248Z,7.40
2017-10-30T22:08:35.537Z,14.83
2017-10-30T22:11:01.778Z,7.43
2017-10-30T22:13:27.992Z,11.73
2017-10-30T22:15:54.287Z,5.07
2017-10-30T22:18:20.520Z,15.60
2017-10-30T22:20:46.749Z,9.13
2017-10-30T22:23:13.027Z,9.40
2017-10-30T22:25:39.261Z,11.30
2017-10-30T22:28:05.492Z,6.47
2017-10-30T22:30:31.775Z,5.40
2017-10-30T22:32:58.004Z,6.80
2017-10-30T22:35:24.230Z,15.03
2017-10-30T22:37:50.512Z,6.53
2017-10-30T22:40:16.769Z,7.07
2017-10-30T22:42:43.007Z,21.20
2017-10-30T22:45:09.302Z,5.10
2017-10-30T22:47:35.554Z,8.97
2017-10-30T22:50:01.779Z,8.53
2017-10-30T22:52:28.047Z,8.70
2017-10-30T22:54:54.297Z,10.90
2017-10-30T22:57:20.560Z,6.17
2017-10-30T22:59:46.892Z,7.67
2017-10-30T23:02:13.139Z,6.40
2017-10-30T23:04:39.394Z,8.67
2017-10-30T23:07:05.684Z,4.07
2017-10-30T23:09:32.015Z,9.00
2017-10-30T23:11:58.242Z,7.60
2017-10-30T23:14:24.531Z,8.90
2017-10-30T23:16:50.764Z,6.03
2017-10-30T23:19:17.004Z,2.53
2017-10-30T23:21:43.294Z,3.47
2017-10-30T23:24:09.534Z,3.30
2017-10-30T23:26:35.775Z,4.67
2017-10-30T23:29:02.055Z,4.53
2017-10-30T23:31:28.296Z,5.83
2017-10-30T23:33:54.543Z,11.47
2017-10-30T23:36:20.833Z,4.30
2017-10-30T23:38:47.062Z,6.43
2017-10-30T23:41:13.297Z,5.60
2017-10-30T23:43:39.608Z,7.30
2017-10-30T23:46:05.852Z,6.13
2017-10-30T23:48:32.101Z,5.60
2017-10-30T23:50:58.373Z,5.70
2017-10-30T23:53:24.606Z,5.60
2017-10-30T23:55:50.847Z,4.57
2017-10-30T23:58:17.160Z,7.77
